N75WA KASE-KFLG
Flight info
| Callsign | N75WA |
|---|---|
| Flight time | 0h 57m |
| Altitude | 43000 |
| Route | LINDZ1 LINDZ JNC LRAIN HMFRY |
| Aircraft | C750/M-SBDE3FGHRWXY/S |
Departure
| Time | 2026-05-04 04:03 |
|---|---|
| Airport | Aspen-Pitkin County Airport (Sardy Field) (KASE) |
Arrival
| Time | 2026-05-04 05:00 |
|---|---|
| Airport | Flagstaff Pulliam Airport (KFLG) |
| Time | Latitude | Longitude | Altitude | Speed | Heading |
|---|---|---|---|---|---|
| 2026-05-04 03:44 | 39.22192 | -106.86593 | 7770 ft | 0 kts | 68° |
| 2026-05-04 03:56 | 39.22192 | -106.86592 | 7770 ft | 1 kts | 68° |
| 2026-05-04 03:57 | 39.22191 | -106.86589 | 7770 ft | 1 kts | 92° |
| 2026-05-04 03:57 | 39.22182 | -106.86578 | 7763 ft | 2 kts | 167° |
| 2026-05-04 03:57 | 39.22167 | -106.86595 | 7778 ft | 5 kts | 220° |
| 2026-05-04 03:57 | 39.22125 | -106.86642 | 7773 ft | 8 kts | 222° |
| 2026-05-04 03:58 | 39.22072 | -106.86645 | 7773 ft | 2 kts | 163° |
| 2026-05-04 03:58 | 39.22059 | -106.86640 | 7778 ft | 2 kts | 164° |
| 2026-05-04 03:58 | 39.22032 | -106.86629 | 7780 ft | 6 kts | 158° |
| 2026-05-04 03:59 | 39.21992 | -106.86609 | 7779 ft | 4 kts | 160° |
| 2026-05-04 03:59 | 39.21952 | -106.86590 | 7771 ft | 8 kts | 160° |
| 2026-05-04 03:59 | 39.21885 | -106.86559 | 7792 ft | 12 kts | 160° |
| 2026-05-04 03:59 | 39.21788 | -106.86514 | 7799 ft | 17 kts | 158° |
| 2026-05-04 04:00 | 39.21695 | -106.86470 | 7807 ft | 10 kts | 158° |
| 2026-05-04 04:00 | 39.21644 | -106.86443 | 7811 ft | 7 kts | 157° |
| 2026-05-04 04:00 | 39.21598 | -106.86421 | 7814 ft | 7 kts | 162° |
| 2026-05-04 04:00 | 39.21548 | -106.86398 | 7815 ft | 9 kts | 159° |
| 2026-05-04 04:01 | 39.21487 | -106.86369 | 7822 ft | 9 kts | 160° |
| 2026-05-04 04:01 | 39.21423 | -106.86337 | 7827 ft | 11 kts | 158° |
| 2026-05-04 04:01 | 39.21346 | -106.86299 | 7828 ft | 13 kts | 161° |
| 2026-05-04 04:01 | 39.21272 | -106.86266 | 7839 ft | 8 kts | 160° |
| 2026-05-04 04:02 | 39.21232 | -106.86249 | 7838 ft | 4 kts | 166° |
| 2026-05-04 04:02 | 39.21210 | -106.86253 | 7843 ft | 4 kts | 198° |
| 2026-05-04 04:02 | 39.21179 | -106.86299 | 7844 ft | 11 kts | 245° |
| 2026-05-04 04:02 | 39.21190 | -106.86348 | 7838 ft | 7 kts | 340° |
| 2026-05-04 04:03 | 39.21461 | -106.86479 | 7826 ft | 97 kts | 340° |
| 2026-05-04 04:03 | 39.22375 | -106.86903 | 7883 ft | 160 kts | 338° |
| 2026-05-04 04:03 | 39.23482 | -106.87364 | 8542 ft | 174 kts | 345° |
| 2026-05-04 04:03 | 39.24665 | -106.87626 | 9476 ft | 173 kts | 350° |
| 2026-05-04 04:04 | 39.25747 | -106.88307 | 10042 ft | 179 kts | 314° |
| 2026-05-04 04:04 | 39.26432 | -106.89681 | 10373 ft | 192 kts | 288° |
| 2026-05-04 04:04 | 39.26719 | -106.91488 | 10531 ft | 222 kts | 278° |
| 2026-05-04 04:04 | 39.27012 | -106.93567 | 10954 ft | 248 kts | 280° |
| 2026-05-04 04:05 | 39.27375 | -106.95844 | 11440 ft | 271 kts | 281° |
| 2026-05-04 04:05 | 39.27775 | -106.98324 | 11850 ft | 294 kts | 281° |
| 2026-05-04 04:05 | 39.28516 | -107.00905 | 11997 ft | 324 kts | 301° |
| 2026-05-04 04:05 | 39.30008 | -107.03182 | 12193 ft | 345 kts | 311° |
| 2026-05-04 04:06 | 39.31701 | -107.05479 | 12598 ft | 357 kts | 312° |
| 2026-05-04 04:06 | 39.33371 | -107.07833 | 13575 ft | 355 kts | 310° |
| 2026-05-04 04:06 | 39.35010 | -107.10240 | 14281 ft | 359 kts | 310° |
| 2026-05-04 04:06 | 39.36627 | -107.12713 | 14915 ft | 362 kts | 305° |
| 2026-05-04 04:07 | 39.37690 | -107.15664 | 15552 ft | 363 kts | 287° |
| 2026-05-04 04:07 | 39.38044 | -107.18892 | 16316 ft | 365 kts | 270° |
| 2026-05-04 04:07 | 39.37661 | -107.22141 | 17070 ft | 368 kts | 257° |
| 2026-05-04 04:07 | 39.37031 | -107.25367 | 17840 ft | 372 kts | 256° |
| 2026-05-04 04:08 | 39.36389 | -107.28582 | 18561 ft | 375 kts | 257° |
| 2026-05-04 04:08 | 39.35750 | -107.31861 | 19284 ft | 378 kts | 257° |
| 2026-05-04 04:08 | 39.35111 | -107.35176 | 20035 ft | 382 kts | 257° |
| 2026-05-04 04:08 | 39.34459 | -107.38515 | 20801 ft | 385 kts | 257° |
| 2026-05-04 04:09 | 39.33796 | -107.41879 | 21570 ft | 388 kts | 257° |
| 2026-05-04 04:09 | 39.33129 | -107.45271 | 22325 ft | 391 kts | 257° |
| 2026-05-04 04:09 | 39.32457 | -107.48704 | 23075 ft | 395 kts | 257° |
| 2026-05-04 04:09 | 39.31778 | -107.52157 | 23751 ft | 399 kts | 256° |
| 2026-05-04 04:10 | 39.31091 | -107.55640 | 24396 ft | 401 kts | 256° |
| 2026-05-04 04:10 | 39.30397 | -107.59147 | 25038 ft | 404 kts | 257° |
| 2026-05-04 04:10 | 39.29708 | -107.62632 | 25645 ft | 406 kts | 257° |
| 2026-05-04 04:10 | 39.29006 | -107.66179 | 26263 ft | 409 kts | 257° |
| 2026-05-04 04:11 | 39.28297 | -107.69745 | 26891 ft | 411 kts | 257° |
| 2026-05-04 04:11 | 39.27583 | -107.73336 | 27506 ft | 414 kts | 257° |
| 2026-05-04 04:11 | 39.26864 | -107.76949 | 28129 ft | 417 kts | 257° |
| 2026-05-04 04:11 | 39.26135 | -107.80600 | 28755 ft | 420 kts | 257° |
| 2026-05-04 04:12 | 39.25402 | -107.84269 | 29361 ft | 423 kts | 257° |
| 2026-05-04 04:12 | 39.24664 | -107.87950 | 29978 ft | 425 kts | 256° |
| 2026-05-04 04:12 | 39.23923 | -107.91648 | 30509 ft | 427 kts | 256° |
| 2026-05-04 04:12 | 39.23185 | -107.95320 | 31126 ft | 426 kts | 256° |
| 2026-05-04 04:13 | 39.22443 | -107.98999 | 32008 ft | 419 kts | 256° |
| 2026-05-04 04:13 | 39.21719 | -108.02589 | 32889 ft | 412 kts | 256° |
| 2026-05-04 04:13 | 39.20997 | -108.06167 | 33755 ft | 407 kts | 256° |
| 2026-05-04 04:13 | 39.20287 | -108.09676 | 34510 ft | 402 kts | 256° |
| 2026-05-04 04:14 | 39.19580 | -108.13157 | 35212 ft | 399 kts | 256° |
| 2026-05-04 04:14 | 39.18879 | -108.16611 | 35934 ft | 396 kts | 256° |
| 2026-05-04 04:14 | 39.18192 | -108.19991 | 36601 ft | 393 kts | 257° |
| 2026-05-04 04:14 | 39.17499 | -108.23390 | 37312 ft | 390 kts | 257° |
| 2026-05-04 04:15 | 39.16811 | -108.26758 | 38034 ft | 387 kts | 257° |
| 2026-05-04 04:15 | 39.16129 | -108.30098 | 38743 ft | 384 kts | 257° |
| 2026-05-04 04:15 | 39.15449 | -108.33424 | 39164 ft | 385 kts | 257° |
| 2026-05-04 04:15 | 39.14764 | -108.36766 | 39586 ft | 386 kts | 257° |
| 2026-05-04 04:16 | 39.14078 | -108.40102 | 40054 ft | 386 kts | 257° |
| 2026-05-04 04:16 | 39.13388 | -108.43461 | 40404 ft | 389 kts | 257° |
| 2026-05-04 04:16 | 39.12692 | -108.46842 | 40844 ft | 390 kts | 257° |
| 2026-05-04 04:16 | 39.11991 | -108.50233 | 41259 ft | 392 kts | 257° |
| 2026-05-04 04:17 | 39.11288 | -108.53633 | 41687 ft | 393 kts | 257° |
| 2026-05-04 04:17 | 39.10582 | -108.57048 | 42112 ft | 395 kts | 257° |
| 2026-05-04 04:17 | 39.09873 | -108.60469 | 42507 ft | 396 kts | 257° |
| 2026-05-04 04:17 | 39.09159 | -108.63907 | 42871 ft | 398 kts | 257° |
| 2026-05-04 04:18 | 39.07583 | -108.70872 | 42905 ft | 418 kts | 252° |
| 2026-05-04 04:18 | 39.06330 | -108.74295 | 42893 ft | 429 kts | 245° |
| 2026-05-04 04:18 | 39.04683 | -108.77560 | 42882 ft | 440 kts | 237° |
| 2026-05-04 04:19 | 39.00289 | -108.83184 | 42856 ft | 454 kts | 223° |
| 2026-05-04 04:19 | 38.94813 | -108.87420 | 42835 ft | 460 kts | 216° |
| 2026-05-04 04:20 | 38.89264 | -108.91493 | 42815 ft | 459 kts | 216° |
| 2026-05-04 04:20 | 38.83737 | -108.95522 | 42828 ft | 459 kts | 216° |
| 2026-05-04 04:21 | 38.78183 | -108.99572 | 42823 ft | 458 kts | 216° |
| 2026-05-04 04:21 | 38.72639 | -109.03605 | 42822 ft | 458 kts | 216° |
| 2026-05-04 04:22 | 38.67097 | -109.07628 | 42836 ft | 457 kts | 216° |
| 2026-05-04 04:22 | 38.61565 | -109.11640 | 42841 ft | 456 kts | 216° |
| 2026-05-04 04:23 | 38.56034 | -109.15640 | 42845 ft | 456 kts | 216° |
| 2026-05-04 04:23 | 38.50512 | -109.19630 | 42868 ft | 455 kts | 216° |
| 2026-05-04 04:24 | 38.45020 | -109.23586 | 42814 ft | 451 kts | 217° |
| 2026-05-04 04:24 | 38.39540 | -109.27536 | 42862 ft | 454 kts | 216° |
| 2026-05-04 04:25 | 38.34032 | -109.31490 | 42857 ft | 454 kts | 216° |
| 2026-05-04 04:25 | 38.28527 | -109.35439 | 42861 ft | 454 kts | 216° |
| 2026-05-04 04:26 | 38.23025 | -109.39377 | 42857 ft | 453 kts | 216° |
| 2026-05-04 04:26 | 38.17536 | -109.43301 | 42860 ft | 452 kts | 216° |
| 2026-05-04 04:27 | 38.12042 | -109.47220 | 42864 ft | 451 kts | 216° |
| 2026-05-04 04:27 | 38.06601 | -109.51096 | 42861 ft | 451 kts | 216° |
| 2026-05-04 04:28 | 38.01123 | -109.54990 | 42870 ft | 450 kts | 216° |
| 2026-05-04 04:28 | 37.95645 | -109.58880 | 42877 ft | 451 kts | 216° |
| 2026-05-04 04:29 | 37.90167 | -109.62759 | 42883 ft | 450 kts | 216° |
| 2026-05-04 04:29 | 37.84681 | -109.66641 | 42927 ft | 452 kts | 216° |
| 2026-05-04 04:30 | 37.79233 | -109.70486 | 42947 ft | 452 kts | 216° |
| 2026-05-04 04:30 | 37.73749 | -109.74353 | 42947 ft | 451 kts | 216° |
| 2026-05-04 04:31 | 37.68249 | -109.78223 | 42956 ft | 451 kts | 216° |
| 2026-05-04 04:31 | 37.62745 | -109.82090 | 42965 ft | 452 kts | 216° |
| 2026-05-04 04:32 | 37.57276 | -109.85924 | 42940 ft | 452 kts | 216° |
| 2026-05-04 04:32 | 37.51783 | -109.89771 | 42905 ft | 451 kts | 216° |
| 2026-05-04 04:33 | 37.46286 | -109.93612 | 42895 ft | 451 kts | 216° |
| 2026-05-04 04:33 | 37.40789 | -109.97448 | 42882 ft | 451 kts | 216° |
| 2026-05-04 04:34 | 37.35298 | -110.01272 | 42884 ft | 450 kts | 216° |
| 2026-05-04 04:34 | 37.29837 | -110.05071 | 42879 ft | 451 kts | 216° |
| 2026-05-04 04:35 | 37.24357 | -110.08873 | 42868 ft | 450 kts | 216° |
| 2026-05-04 04:35 | 37.18872 | -110.12677 | 42878 ft | 450 kts | 216° |
| 2026-05-04 04:36 | 37.13386 | -110.16471 | 42868 ft | 449 kts | 216° |
| 2026-05-04 04:36 | 37.07943 | -110.20232 | 42871 ft | 450 kts | 216° |
| 2026-05-04 04:37 | 36.96971 | -110.27792 | 42858 ft | 449 kts | 215° |
| 2026-05-04 04:38 | 36.91488 | -110.31560 | 42852 ft | 450 kts | 215° |
| 2026-05-04 04:38 | 36.85991 | -110.35332 | 42839 ft | 452 kts | 215° |
| 2026-05-04 04:39 | 36.80502 | -110.39091 | 42851 ft | 450 kts | 215° |
| 2026-05-04 04:39 | 36.74995 | -110.42859 | 42705 ft | 454 kts | 215° |
| 2026-05-04 04:40 | 36.72218 | -110.44757 | 42062 ft | 454 kts | 215° |
| 2026-05-04 04:40 | 36.69455 | -110.46638 | 41468 ft | 451 kts | 215° |
| 2026-05-04 04:40 | 36.66690 | -110.48524 | 40865 ft | 451 kts | 215° |
| 2026-05-04 04:40 | 36.63971 | -110.50379 | 40270 ft | 451 kts | 215° |
| 2026-05-04 04:41 | 36.61214 | -110.52256 | 39681 ft | 451 kts | 215° |
| 2026-05-04 04:41 | 36.58454 | -110.54133 | 39075 ft | 450 kts | 215° |
| 2026-05-04 04:41 | 36.55700 | -110.56004 | 38476 ft | 451 kts | 214° |
| 2026-05-04 04:41 | 36.52947 | -110.57889 | 37834 ft | 451 kts | 216° |
| 2026-05-04 04:42 | 36.50359 | -110.60072 | 37227 ft | 449 kts | 223° |
| 2026-05-04 04:42 | 36.47945 | -110.62485 | 36654 ft | 452 kts | 224° |
| 2026-05-04 04:42 | 36.45476 | -110.64935 | 36051 ft | 456 kts | 223° |
| 2026-05-04 04:42 | 36.42979 | -110.67389 | 35444 ft | 459 kts | 223° |
| 2026-05-04 04:43 | 36.40465 | -110.69870 | 34836 ft | 462 kts | 223° |
| 2026-05-04 04:43 | 36.37950 | -110.72368 | 34222 ft | 465 kts | 223° |
| 2026-05-04 04:43 | 36.36263 | -110.74040 | 33806 ft | 468 kts | 223° |
| 2026-05-04 04:43 | 36.32909 | -110.77340 | 32960 ft | 462 kts | 223° |
| 2026-05-04 04:44 | 36.30399 | -110.79809 | 32351 ft | 458 kts | 223° |
| 2026-05-04 04:44 | 36.27920 | -110.82257 | 31752 ft | 454 kts | 223° |
| 2026-05-04 04:44 | 36.26253 | -110.83902 | 31347 ft | 452 kts | 222° |
| 2026-05-04 04:44 | 36.23828 | -110.86288 | 30756 ft | 449 kts | 222° |
| 2026-05-04 04:45 | 36.21388 | -110.88683 | 30160 ft | 446 kts | 222° |
| 2026-05-04 04:45 | 36.18960 | -110.91067 | 29536 ft | 443 kts | 222° |
| 2026-05-04 04:45 | 36.16561 | -110.93423 | 28956 ft | 439 kts | 222° |
| 2026-05-04 04:47 | 36.02580 | -111.07107 | 25572 ft | 417 kts | 221° |
| 2026-05-04 04:47 | 36.00306 | -111.09327 | 25015 ft | 414 kts | 221° |
| 2026-05-04 04:47 | 35.98052 | -111.11526 | 24474 ft | 412 kts | 221° |
| 2026-05-04 04:47 | 35.95810 | -111.13711 | 23929 ft | 408 kts | 221° |
| 2026-05-04 04:48 | 35.93589 | -111.15874 | 23389 ft | 406 kts | 220° |
| 2026-05-04 04:49 | 35.84854 | -111.24365 | 21238 ft | 396 kts | 219° |
| 2026-05-04 04:49 | 35.82690 | -111.26465 | 20716 ft | 394 kts | 219° |
| 2026-05-04 04:49 | 35.80540 | -111.28551 | 20198 ft | 392 kts | 219° |
| 2026-05-04 04:49 | 35.78402 | -111.30623 | 19687 ft | 389 kts | 219° |
| 2026-05-04 04:50 | 35.76276 | -111.32681 | 19179 ft | 387 kts | 218° |
| 2026-05-04 04:50 | 35.74160 | -111.34728 | 18668 ft | 385 kts | 218° |
| 2026-05-04 04:50 | 35.71850 | -111.36319 | 17785 ft | 381 kts | 199° |
| 2026-05-04 04:50 | 35.69236 | -111.36805 | 17403 ft | 378 kts | 187° |
| 2026-05-04 04:51 | 35.66720 | -111.37270 | 16367 ft | 368 kts | 191° |
| 2026-05-04 04:51 | 35.64181 | -111.37918 | 15737 ft | 365 kts | 192° |
| 2026-05-04 04:51 | 35.61644 | -111.38465 | 15585 ft | 371 kts | 189° |
| 2026-05-04 04:51 | 35.59093 | -111.38891 | 15096 ft | 368 kts | 188° |
| 2026-05-04 04:52 | 35.56597 | -111.39330 | 14060 ft | 360 kts | 189° |
| 2026-05-04 04:52 | 35.54126 | -111.39842 | 12774 ft | 358 kts | 190° |
| 2026-05-04 04:52 | 35.51699 | -111.40344 | 11637 ft | 350 kts | 189° |
| 2026-05-04 04:52 | 35.49291 | -111.40800 | 10869 ft | 344 kts | 189° |
| 2026-05-04 04:53 | 35.47026 | -111.41221 | 10718 ft | 312 kts | 189° |
| 2026-05-04 04:53 | 35.44986 | -111.41621 | 10712 ft | 287 kts | 189° |
| 2026-05-04 04:53 | 35.43008 | -111.42028 | 10721 ft | 287 kts | 190° |
| 2026-05-04 04:53 | 35.41039 | -111.42452 | 10745 ft | 287 kts | 191° |
| 2026-05-04 04:54 | 35.39077 | -111.42894 | 10760 ft | 287 kts | 191° |
| 2026-05-04 04:54 | 35.37161 | -111.43345 | 10781 ft | 275 kts | 191° |
| 2026-05-04 04:54 | 35.35370 | -111.43785 | 10797 ft | 250 kts | 192° |
| 2026-05-04 04:54 | 35.33814 | -111.44498 | 10808 ft | 231 kts | 205° |
| 2026-05-04 04:55 | 35.32404 | -111.45408 | 10831 ft | 229 kts | 211° |
| 2026-05-04 04:55 | 35.31147 | -111.46598 | 10846 ft | 229 kts | 221° |
| 2026-05-04 04:55 | 35.30004 | -111.47962 | 10868 ft | 229 kts | 223° |
| 2026-05-04 04:55 | 35.28851 | -111.49339 | 10679 ft | 229 kts | 223° |
| 2026-05-04 04:56 | 35.27808 | -111.50588 | 10406 ft | 195 kts | 223° |
| 2026-05-04 04:56 | 35.26848 | -111.51736 | 10177 ft | 192 kts | 222° |
| 2026-05-04 04:56 | 35.25892 | -111.52877 | 9974 ft | 192 kts | 222° |
| 2026-05-04 04:56 | 35.24940 | -111.54013 | 9730 ft | 191 kts | 222° |
| 2026-05-04 04:57 | 35.23999 | -111.55147 | 9482 ft | 181 kts | 223° |
| 2026-05-04 04:57 | 35.23169 | -111.56144 | 9256 ft | 155 kts | 222° |
| 2026-05-04 04:57 | 35.22439 | -111.57018 | 9060 ft | 140 kts | 221° |
| 2026-05-04 04:57 | 35.21757 | -111.57835 | 8888 ft | 135 kts | 222° |
| 2026-05-04 04:58 | 35.21163 | -111.58748 | 8678 ft | 139 kts | 230° |
| 2026-05-04 04:58 | 35.20584 | -111.59688 | 8460 ft | 138 kts | 228° |
| 2026-05-04 04:58 | 35.19975 | -111.60544 | 8326 ft | 133 kts | 226° |
| 2026-05-04 04:58 | 35.19319 | -111.61325 | 8148 ft | 132 kts | 218° |
| 2026-05-04 04:59 | 35.18605 | -111.62037 | 8012 ft | 132 kts | 218° |
| 2026-05-04 04:59 | 35.17927 | -111.62795 | 7880 ft | 133 kts | 220° |
| 2026-05-04 04:59 | 35.17214 | -111.63555 | 7699 ft | 139 kts | 219° |
| 2026-05-04 04:59 | 35.16472 | -111.64325 | 7553 ft | 140 kts | 220° |
| 2026-05-04 05:00 | 35.15728 | -111.65106 | 7360 ft | 142 kts | 221° |
| 2026-05-04 05:00 | 35.15001 | -111.65876 | 7138 ft | 134 kts | 221° |
| 2026-05-04 05:00 | 35.13875 | -111.67093 | 7001 ft | 40 kts | 220° |
| 2026-05-04 05:01 | 35.13737 | -111.67241 | 6998 ft | 14 kts | 220° |
| 2026-05-04 05:01 | 35.13707 | -111.67316 | 7003 ft | 7 kts | 279° |
| 2026-05-04 05:01 | 35.13717 | -111.67356 | 7000 ft | 5 kts | 307° |
| 2026-05-04 05:01 | 35.13748 | -111.67398 | 7004 ft | 7 kts | 315° |
| 2026-05-04 05:02 | 35.13765 | -111.67444 | 7002 ft | 6 kts | 289° |
| 2026-05-04 05:02 | 35.13762 | -111.67483 | 7004 ft | 7 kts | 243° |